Terminal Aerodrome Forecast
Issued by NWS

Home | Current Version | Previous Version | Text Only | Print | Product List | Glossary On
Versions: 1 2 3 4 5 6 7 8 9 10 11 12 13 14 15 16 17 18 19 20 21 22 23 24 25 26 27 28 29 30 31 32 33 34 35 36 37
000
FTUS41 KRNK 081734
TAFBCB
TAF
KBCB 081734Z 0818/0918 29007G15KT P6SM BKN050
     FM082000 29012G22KT P6SM SCT060 BKN200
     FM090400 29009G18KT P6SM BKN035
      TEMPO 0912/0914 6SM -SHSN BKN015
     FM091400 31010G20KT P6SM -SHSN BKN025=

USA.gov is the U.S. government's official web portal to all federal, state and local government web resources and services.